User: anonymous   Login
Location: Tuebingen alte Sternwarte
(48.5376°N, 9.0555°E)
Time: 01:46:50
(UTC+02:00)
Language:

OSIRIS-REx Flyby

On September 22 2017, the interplanetary probe OSIRIS-REx will fly past the Earth. The Earth will give it a "gravity assist" and put it on a trajectory to reach the asteroid Bennu. If you know where to look and live in the right part of the world, you will have a chance to see it through binoculars or a telescope.

Click on a table row to load a finder chart corresponding to that time, or alternatively, you can go straight to a finder chart for a time near closest approach by clicking here.

Flyby data
Time of closest approachSep 22, 18:51:45
Distance of closest approach23,596 km
Speed at closest approach8.520 km/s
Speed at infinity (rel. to Earth)6.229 km/s

Position Table (click on a row of the table to load a finder chart)

Time Distance (km) Brightness Altitude Azimuth Right ascension Declination Constellation Sun altitude
Sep 22, 13:00:00152,74313.2-53.2°348.9°0h 8.4m-12° 18'Cetus41.5°
Sep 22, 13:30:00141,11813.1-54.7°1.5°0h 7.9m-13° 21'Cetus41.5°
Sep 22, 14:00:00129,41012.9-55.3°14.6°0h 7.4m-14° 37'Cetus40.7°
Sep 22, 14:30:00117,62412.7-54.9°27.8°0h 6.7m-16° 8'Cetus39.0°
Sep 22, 15:00:00105,77312.5-53.7°40.8°0h 5.9m-18° 1'Cetus36.7°
Sep 22, 15:30:0093,87512.2-52.0°53.3°0h 4.7m-20° 23'Cetus33.7°
Sep 22, 16:00:0081,96512.0-49.9°65.5°0h 3.0m-23° 27'Cetus30.1°
Sep 22, 16:30:0070,10811.7-47.7°78.0°0h 0.4m-27° 35'Sculptor26.2°
Sep 22, 17:00:0058,43011.3-45.9°91.4°23h 56.3m-33° 25'Sculptor21.9°
Sep 22, 17:30:0047,20010.9-44.7°107.6°23h 48.9m-42° 8'Phoenix17.3°
Sep 22, 18:00:0037,04210.5-44.4°129.9°23h 31.4m-55° 56'Phoenix12.6°
Sep 22, 18:30:0029,43710.2-43.2°163.4°21h 57.2m-77° 22'Octans7.7°
Sep 22, 19:00:0027,05110.5-36.1°205.6°13h 18.5m-67° 24'Musca2.7°
Sep 22, 19:30:0031,24311.4-25.4°239.7°12h 29.0m-38° 26'Centaurus-2.2°
Sep 22, 20:00:0039,82312.7-18.8°262.0°12h 14.4m-19° 7'Corvus-7.2°
Sep 22, 20:30:0050,39214.2-16.4°277.4°12h 7.1m-7° 20'Virgo-12.1°
Sep 22, 21:00:0061,79417.2-16.2°289.3°12h 2.7m0° 11'Virgo-16.8°
Sep 22, 21:30:0073,54915.4-17.0°299.4°11h 59.9m5° 18'Virgo-21.4°
Sep 22, 22:00:0085,44415.2-18.4°308.5°11h 57.9m9° 0'Virgo-25.7°
Sep 22, 22:30:0097,37815.1-19.8°317.0°11h 56.5m11° 47'Leo-29.7°
Sep 22, 23:00:00109,29915.2-21.0°325.4°11h 55.5m13° 58'Leo-33.3°
Sep 22, 23:30:00121,17715.3-22.0°333.5°11h 54.7m15° 44'Leo-36.3°
Sep 23, 00:00:00132,99415.4-22.5°341.6°11h 54.2m17° 11'Leo-38.8°
Sep 23, 00:30:00144,74115.5-22.6°349.6°11h 53.7m18° 24'Leo-40.5°
Sep 23, 01:00:00156,41315.6-22.1°357.4°11h 53.3m19° 26'Leo-41.4°
 

DLR